sensor_id;sensor_type;location;lat;lon;timestamp;P1;durP1;ratioP1;P2;durP2;ratioP2
23302;SDS011;11820;48.738;9.092;2023-07-29T00:01:18;1.10;;;1.00;;
23302;SDS011;11820;48.738;9.092;2023-07-29T00:03:43;1.27;;;1.10;;
23302;SDS011;11820;48.738;9.092;2023-07-29T00:06:09;1.07;;;1.03;;
23302;SDS011;11820;48.738;9.092;2023-07-29T00:08:34;3.20;;;1.50;;
23302;SDS011;11820;48.738;9.092;2023-07-29T00:11:00;1.50;;;1.40;;
23302;SDS011;11820;48.738;9.092;2023-07-29T00:13:25;1.73;;;1.23;;
23302;SDS011;11820;48.738;9.092;2023-07-29T00:15:52;1.30;;;1.20;;
23302;SDS011;11820;48.738;9.092;2023-07-29T00:18:19;3.50;;;1.30;;
23302;SDS011;11820;48.738;9.092;2023-07-29T00:20:44;2.53;;;1.77;;
23302;SDS011;11820;48.738;9.092;2023-07-29T00:23:10;2.30;;;1.30;;
23302;SDS011;11820;48.738;9.092;2023-07-29T00:25:35;1.67;;;1.20;;
23302;SDS011;11820;48.738;9.092;2023-07-29T00:28:01;3.93;;;1.13;;
23302;SDS011;11820;48.738;9.092;2023-07-29T00:30:26;2.70;;;1.50;;
23302;SDS011;11820;48.738;9.092;2023-07-29T00:32:51;3.10;;;1.40;;
23302;SDS011;11820;48.738;9.092;2023-07-29T00:35:17;1.40;;;1.30;;
23302;SDS011;11820;48.738;9.092;2023-07-29T00:37:42;1.73;;;1.63;;
23302;SDS011;11820;48.738;9.092;2023-07-29T00:40:09;2.03;;;1.53;;
23302;SDS011;11820;48.738;9.092;2023-07-29T00:42:43;3.03;;;1.57;;
23302;SDS011;11820;48.738;9.092;2023-07-29T00:45:09;1.60;;;1.50;;
23302;SDS011;11820;48.738;9.092;2023-07-29T00:47:35;1.57;;;1.40;;
23302;SDS011;11820;48.738;9.092;2023-07-29T00:50:00;2.63;;;1.70;;
23302;SDS011;11820;48.738;9.092;2023-07-29T00:52:26;1.70;;;1.50;;
23302;SDS011;11820;48.738;9.092;2023-07-29T00:54:52;1.60;;;1.43;;
23302;SDS011;11820;48.738;9.092;2023-07-29T00:57:17;1.93;;;1.50;;
23302;SDS011;11820;48.738;9.092;2023-07-29T00:59:44;2.20;;;1.57;;
23302;SDS011;11820;48.738;9.092;2023-07-29T01:02:09;1.43;;;1.33;;
23302;SDS011;11820;48.738;9.092;2023-07-29T01:04:35;1.60;;;1.50;;
23302;SDS011;11820;48.738;9.092;2023-07-29T01:07:03;2.17;;;1.50;;
23302;SDS011;11820;48.738;9.092;2023-07-29T01:10:00;1.50;;;1.40;;
23302;SDS011;11820;48.738;9.092;2023-07-29T01:15:11;1.70;;;1.60;;
23302;SDS011;11820;48.738;9.092;2023-07-29T01:17:48;2.20;;;1.17;;
23302;SDS011;11820;48.738;9.092;2023-07-29T01:20:17;2.10;;;1.60;;
23302;SDS011;11820;48.738;9.092;2023-07-29T01:22:45;2.73;;;1.47;;
23302;SDS011;11820;48.738;9.092;2023-07-29T01:25:12;2.83;;;1.83;;
23302;SDS011;11820;48.738;9.092;2023-07-29T01:27:38;2.83;;;1.50;;
23302;SDS011;11820;48.738;9.092;2023-07-29T01:30:04;1.40;;;1.23;;
23302;SDS011;11820;48.738;9.092;2023-07-29T01:35:15;2.73;;;1.60;;
23302;SDS011;11820;48.738;9.092;2023-07-29T01:38:09;2.43;;;1.47;;
23302;SDS011;11820;48.738;9.092;2023-07-29T01:40:39;4.73;;;1.60;;
23302;SDS011;11820;48.738;9.092;2023-07-29T01:43:05;2.80;;;1.90;;
23302;SDS011;11820;48.738;9.092;2023-07-29T01:45:33;2.50;;;1.60;;
23302;SDS011;11820;48.738;9.092;2023-07-29T01:48:03;4.33;;;1.87;;
23302;SDS011;11820;48.738;9.092;2023-07-29T01:50:32;2.80;;;1.93;;
23302;SDS011;11820;48.738;9.092;2023-07-29T01:52:57;2.03;;;1.63;;
23302;SDS011;11820;48.738;9.092;2023-07-29T01:55:23;3.30;;;1.87;;
23302;SDS011;11820;48.738;9.092;2023-07-29T01:57:49;3.53;;;1.50;;
23302;SDS011;11820;48.738;9.092;2023-07-29T02:00:15;3.87;;;1.90;;
23302;SDS011;11820;48.738;9.092;2023-07-29T02:02:40;1.83;;;1.63;;
23302;SDS011;11820;48.738;9.092;2023-07-29T02:05:06;2.17;;;1.40;;
23302;SDS011;11820;48.738;9.092;2023-07-29T02:07:31;3.47;;;1.50;;
23302;SDS011;11820;48.738;9.092;2023-07-29T02:09:57;2.57;;;1.50;;
23302;SDS011;11820;48.738;9.092;2023-07-29T02:12:22;1.90;;;1.20;;
23302;SDS011;11820;48.738;9.092;2023-07-29T02:14:47;1.73;;;1.57;;
23302;SDS011;11820;48.738;9.092;2023-07-29T02:17:13;4.17;;;1.50;;
23302;SDS011;11820;48.738;9.092;2023-07-29T02:19:38;3.20;;;1.73;;
23302;SDS011;11820;48.738;9.092;2023-07-29T02:22:03;1.97;;;1.53;;
23302;SDS011;11820;48.738;9.092;2023-07-29T02:24:29;2.13;;;1.27;;
23302;SDS011;11820;48.738;9.092;2023-07-29T02:26:54;3.23;;;1.93;;
23302;SDS011;11820;48.738;9.092;2023-07-29T02:29:20;3.73;;;1.93;;
23302;SDS011;11820;48.738;9.092;2023-07-29T02:31:46;2.70;;;1.90;;
23302;SDS011;11820;48.738;9.092;2023-07-29T02:34:12;2.30;;;1.83;;
23302;SDS011;11820;48.738;9.092;2023-07-29T02:36:38;4.40;;;1.93;;
23302;SDS011;11820;48.738;9.092;2023-07-29T02:39:03;3.67;;;1.80;;
23302;SDS011;11820;48.738;9.092;2023-07-29T02:41:28;2.27;;;1.53;;
23302;SDS011;11820;48.738;9.092;2023-07-29T02:43:54;2.33;;;1.77;;
23302;SDS011;11820;48.738;9.092;2023-07-29T02:46:19;1.77;;;1.50;;
23302;SDS011;11820;48.738;9.092;2023-07-29T02:48:45;1.70;;;1.60;;
23302;SDS011;11820;48.738;9.092;2023-07-29T02:51:10;3.97;;;1.80;;
23302;SDS011;11820;48.738;9.092;2023-07-29T02:53:35;3.07;;;1.80;;
23302;SDS011;11820;48.738;9.092;2023-07-29T02:56:04;6.33;;;1.77;;
23302;SDS011;11820;48.738;9.092;2023-07-29T02:58:30;2.00;;;1.80;;
23302;SDS011;11820;48.738;9.092;2023-07-29T03:01:01;2.20;;;1.73;;
23302;SDS011;11820;48.738;9.092;2023-07-29T03:03:28;4.23;;;1.87;;
23302;SDS011;11820;48.738;9.092;2023-07-29T03:05:58;3.40;;;1.90;;
23302;SDS011;11820;48.738;9.092;2023-07-29T03:08:25;2.20;;;1.93;;
23302;SDS011;11820;48.738;9.092;2023-07-29T03:10:50;3.50;;;2.10;;
23302;SDS011;11820;48.738;9.092;2023-07-29T03:13:15;1.83;;;1.73;;
23302;SDS011;11820;48.738;9.092;2023-07-29T03:22:04;2.17;;;1.70;;
23302;SDS011;11820;48.738;9.092;2023-07-29T03:24:30;2.60;;;1.90;;
23302;SDS011;11820;48.738;9.092;2023-07-29T03:26:55;2.07;;;1.70;;
23302;SDS011;11820;48.738;9.092;2023-07-29T03:29:20;1.73;;;1.63;;
23302;SDS011;11820;48.738;9.092;2023-07-29T03:31:46;3.93;;;1.87;;
23302;SDS011;11820;48.738;9.092;2023-07-29T03:34:11;2.40;;;1.97;;
23302;SDS011;11820;48.738;9.092;2023-07-29T03:36:37;1.90;;;1.80;;
23302;SDS011;11820;48.738;9.092;2023-07-29T03:39:02;2.10;;;1.83;;
23302;SDS011;11820;48.738;9.092;2023-07-29T03:41:28;3.57;;;2.03;;
23302;SDS011;11820;48.738;9.092;2023-07-29T03:43:54;2.43;;;2.13;;
23302;SDS011;11820;48.738;9.092;2023-07-29T03:46:19;4.40;;;2.23;;
23302;SDS011;11820;48.738;9.092;2023-07-29T03:48:47;3.93;;;1.70;;
23302;SDS011;11820;48.738;9.092;2023-07-29T03:51:13;2.50;;;1.80;;
23302;SDS011;11820;48.738;9.092;2023-07-29T03:53:38;6.53;;;1.77;;
23302;SDS011;11820;48.738;9.092;2023-07-29T03:56:03;4.30;;;1.90;;
23302;SDS011;11820;48.738;9.092;2023-07-29T03:58:29;4.97;;;2.03;;
23302;SDS011;11820;48.738;9.092;2023-07-29T04:00:54;2.20;;;2.00;;
23302;SDS011;11820;48.738;9.092;2023-07-29T04:03:20;3.70;;;1.90;;
23302;SDS011;11820;48.738;9.092;2023-07-29T04:05:45;2.13;;;1.93;;
23302;SDS011;11820;48.738;9.092;2023-07-29T04:08:10;2.77;;;2.30;;
23302;SDS011;11820;48.738;9.092;2023-07-29T04:10:36;3.60;;;2.43;;
23302;SDS011;11820;48.738;9.092;2023-07-29T04:13:02;3.50;;;1.90;;
23302;SDS011;11820;48.738;9.092;2023-07-29T04:15:28;4.87;;;2.50;;
23302;SDS011;11820;48.738;9.092;2023-07-29T04:17:54;4.43;;;2.20;;
23302;SDS011;11820;48.738;9.092;2023-07-29T04:20:20;2.73;;;2.00;;
23302;SDS011;11820;48.738;9.092;2023-07-29T04:22:45;2.40;;;1.97;;
23302;SDS011;11820;48.738;9.092;2023-07-29T04:25:10;2.90;;;2.07;;
23302;SDS011;11820;48.738;9.092;2023-07-29T04:27:36;3.67;;;2.17;;
23302;SDS011;11820;48.738;9.092;2023-07-29T04:30:01;4.30;;;2.53;;
23302;SDS011;11820;48.738;9.092;2023-07-29T04:32:26;5.13;;;2.10;;
23302;SDS011;11820;48.738;9.092;2023-07-29T04:34:52;4.33;;;2.43;;
23302;SDS011;11820;48.738;9.092;2023-07-29T04:37:17;2.50;;;2.27;;
23302;SDS011;11820;48.738;9.092;2023-07-29T04:39:42;5.23;;;2.23;;
23302;SDS011;11820;48.738;9.092;2023-07-29T04:42:08;2.27;;;2.00;;
23302;SDS011;11820;48.738;9.092;2023-07-29T04:44:33;3.83;;;2.47;;
23302;SDS011;11820;48.738;9.092;2023-07-29T04:46:58;4.60;;;2.60;;
23302;SDS011;11820;48.738;9.092;2023-07-29T04:49:24;5.10;;;2.50;;
23302;SDS011;11820;48.738;9.092;2023-07-29T04:51:49;3.47;;;2.60;;
23302;SDS011;11820;48.738;9.092;2023-07-29T04:54:14;3.43;;;3.10;;
23302;SDS011;11820;48.738;9.092;2023-07-29T04:56:39;4.43;;;2.50;;
23302;SDS011;11820;48.738;9.092;2023-07-29T04:59:05;4.13;;;2.87;;
23302;SDS011;11820;48.738;9.092;2023-07-29T05:01:32;5.37;;;3.03;;
23302;SDS011;11820;48.738;9.092;2023-07-29T05:03:58;5.83;;;2.90;;
23302;SDS011;11820;48.738;9.092;2023-07-29T05:06:23;5.83;;;3.20;;
23302;SDS011;11820;48.738;9.092;2023-07-29T05:08:48;6.30;;;3.07;;
23302;SDS011;11820;48.738;9.092;2023-07-29T05:11:14;5.57;;;2.80;;
23302;SDS011;11820;48.738;9.092;2023-07-29T05:13:39;3.80;;;2.67;;
23302;SDS011;11820;48.738;9.092;2023-07-29T05:16:04;4.10;;;2.90;;
23302;SDS011;11820;48.738;9.092;2023-07-29T05:18:29;6.17;;;2.43;;
23302;SDS011;11820;48.738;9.092;2023-07-29T05:20:55;3.83;;;3.00;;
23302;SDS011;11820;48.738;9.092;2023-07-29T05:23:20;3.60;;;2.50;;
23302;SDS011;11820;48.738;9.092;2023-07-29T05:25:45;4.97;;;2.67;;
23302;SDS011;11820;48.738;9.092;2023-07-29T05:28:11;5.17;;;2.87;;
23302;SDS011;11820;48.738;9.092;2023-07-29T05:30:36;3.10;;;2.60;;
23302;SDS011;11820;48.738;9.092;2023-07-29T05:33:02;2.97;;;2.70;;
23302;SDS011;11820;48.738;9.092;2023-07-29T05:35:29;3.80;;;2.60;;
23302;SDS011;11820;48.738;9.092;2023-07-29T05:37:55;4.03;;;2.60;;
23302;SDS011;11820;48.738;9.092;2023-07-29T05:40:20;2.93;;;2.63;;
23302;SDS011;11820;48.738;9.092;2023-07-29T05:42:45;3.03;;;2.73;;
23302;SDS011;11820;48.738;9.092;2023-07-29T05:45:11;2.63;;;2.30;;
23302;SDS011;11820;48.738;9.092;2023-07-29T05:47:36;4.10;;;2.77;;
23302;SDS011;11820;48.738;9.092;2023-07-29T05:50:02;2.30;;;2.10;;
23302;SDS011;11820;48.738;9.092;2023-07-29T05:52:29;2.40;;;2.20;;
23302;SDS011;11820;48.738;9.092;2023-07-29T05:54:55;3.13;;;2.47;;
23302;SDS011;11820;48.738;9.092;2023-07-29T05:57:20;6.13;;;2.70;;
23302;SDS011;11820;48.738;9.092;2023-07-29T05:59:46;4.83;;;2.70;;
23302;SDS011;11820;48.738;9.092;2023-07-29T06:02:11;2.70;;;2.50;;
23302;SDS011;11820;48.738;9.092;2023-07-29T06:04:36;3.30;;;2.80;;
23302;SDS011;11820;48.738;9.092;2023-07-29T06:07:02;3.53;;;2.20;;
23302;SDS011;11820;48.738;9.092;2023-07-29T06:09:27;2.50;;;2.10;;
23302;SDS011;11820;48.738;9.092;2023-07-29T06:11:53;2.70;;;1.90;;
23302;SDS011;11820;48.738;9.092;2023-07-29T06:14:18;3.10;;;1.80;;
23302;SDS011;11820;48.738;9.092;2023-07-29T06:16:43;3.40;;;2.33;;
23302;SDS011;11820;48.738;9.092;2023-07-29T06:19:09;2.47;;;2.27;;
23302;SDS011;11820;48.738;9.092;2023-07-29T06:21:34;2.33;;;2.13;;
23302;SDS011;11820;48.738;9.092;2023-07-29T06:24:00;4.37;;;2.20;;
23302;SDS011;11820;48.738;9.092;2023-07-29T06:26:26;2.23;;;1.73;;
23302;SDS011;11820;48.738;9.092;2023-07-29T06:28:51;1.57;;;1.47;;
23302;SDS011;11820;48.738;9.092;2023-07-29T06:31:16;2.50;;;2.30;;
23302;SDS011;11820;48.738;9.092;2023-07-29T06:33:42;1.93;;;1.83;;
23302;SDS011;11820;48.738;9.092;2023-07-29T06:36:07;3.53;;;1.87;;
23302;SDS011;11820;48.738;9.092;2023-07-29T06:38:33;2.93;;;1.70;;
23302;SDS011;11820;48.738;9.092;2023-07-29T06:40:58;3.20;;;1.60;;
23302;SDS011;11820;48.738;9.092;2023-07-29T06:43:23;2.83;;;1.70;;
23302;SDS011;11820;48.738;9.092;2023-07-29T06:45:49;3.53;;;1.80;;
23302;SDS011;11820;48.738;9.092;2023-07-29T06:48:14;2.70;;;1.70;;
23302;SDS011;11820;48.738;9.092;2023-07-29T06:50:39;2.50;;;1.70;;
23302;SDS011;11820;48.738;9.092;2023-07-29T06:53:05;1.93;;;1.80;;
23302;SDS011;11820;48.738;9.092;2023-07-29T06:55:31;2.03;;;1.70;;
23302;SDS011;11820;48.738;9.092;2023-07-29T06:57:56;3.40;;;1.60;;
23302;SDS011;11820;48.738;9.092;2023-07-29T07:00:21;4.03;;;2.03;;
23302;SDS011;11820;48.738;9.092;2023-07-29T07:02:47;2.67;;;1.93;;
23302;SDS011;11820;48.738;9.092;2023-07-29T07:05:12;2.77;;;2.13;;
23302;SDS011;11820;48.738;9.092;2023-07-29T07:07:37;2.63;;;1.80;;
23302;SDS011;11820;48.738;9.092;2023-07-29T07:10:03;3.37;;;2.00;;
23302;SDS011;11820;48.738;9.092;2023-07-29T07:12:29;2.67;;;1.50;;
23302;SDS011;11820;48.738;9.092;2023-07-29T07:14:54;2.27;;;1.70;;
23302;SDS011;11820;48.738;9.092;2023-07-29T07:17:19;4.60;;;1.60;;
23302;SDS011;11820;48.738;9.092;2023-07-29T07:19:45;2.70;;;1.57;;
23302;SDS011;11820;48.738;9.092;2023-07-29T07:22:11;1.90;;;1.57;;
23302;SDS011;11820;48.738;9.092;2023-07-29T07:24:36;2.57;;;1.40;;
23302;SDS011;11820;48.738;9.092;2023-07-29T07:27:02;2.77;;;1.50;;
23302;SDS011;11820;48.738;9.092;2023-07-29T07:29:28;4.80;;;1.50;;
23302;SDS011;11820;48.738;9.092;2023-07-29T07:31:54;2.10;;;1.40;;
23302;SDS011;11820;48.738;9.092;2023-07-29T07:34:19;4.90;;;1.70;;
23302;SDS011;11820;48.738;9.092;2023-07-29T07:36:46;2.07;;;1.60;;
23302;SDS011;11820;48.738;9.092;2023-07-29T07:39:11;2.43;;;1.77;;
23302;SDS011;11820;48.738;9.092;2023-07-29T07:41:37;2.00;;;1.67;;
23302;SDS011;11820;48.738;9.092;2023-07-29T07:44:02;2.27;;;1.63;;
23302;SDS011;11820;48.738;9.092;2023-07-29T07:46:28;2.43;;;1.60;;
23302;SDS011;11820;48.738;9.092;2023-07-29T07:48:54;1.43;;;1.33;;
23302;SDS011;11820;48.738;9.092;2023-07-29T07:51:19;1.97;;;1.50;;
23302;SDS011;11820;48.738;9.092;2023-07-29T07:53:44;1.70;;;1.50;;
23302;SDS011;11820;48.738;9.092;2023-07-29T07:56:10;1.83;;;1.57;;
23302;SDS011;11820;48.738;9.092;2023-07-29T07:58:35;1.87;;;1.67;;
23302;SDS011;11820;48.738;9.092;2023-07-29T08:01:01;3.37;;;1.50;;
23302;SDS011;11820;48.738;9.092;2023-07-29T08:03:30;2.00;;;1.40;;
23302;SDS011;11820;48.738;9.092;2023-07-29T08:05:56;2.20;;;1.40;;
23302;SDS011;11820;48.738;9.092;2023-07-29T08:08:21;1.40;;;1.30;;
23302;SDS011;11820;48.738;9.092;2023-07-29T08:10:47;1.47;;;1.37;;
23302;SDS011;11820;48.738;9.092;2023-07-29T08:13:12;2.60;;;1.30;;
23302;SDS011;11820;48.738;9.092;2023-07-29T08:15:37;1.50;;;1.07;;
23302;SDS011;11820;48.738;9.092;2023-07-29T08:18:03;2.77;;;1.50;;
23302;SDS011;11820;48.738;9.092;2023-07-29T08:20:28;1.30;;;1.20;;
23302;SDS011;11820;48.738;9.092;2023-07-29T08:22:53;1.33;;;1.10;;
23302;SDS011;11820;48.738;9.092;2023-07-29T08:25:19;1.30;;;1.20;;
23302;SDS011;11820;48.738;9.092;2023-07-29T08:27:44;2.07;;;1.47;;
23302;SDS011;11820;48.738;9.092;2023-07-29T08:30:09;1.30;;;1.00;;
23302;SDS011;11820;48.738;9.092;2023-07-29T08:32:35;1.20;;;1.10;;
23302;SDS011;11820;48.738;9.092;2023-07-29T08:35:01;1.10;;;1.00;;
23302;SDS011;11820;48.738;9.092;2023-07-29T08:37:26;1.80;;;1.30;;
23302;SDS011;11820;48.738;9.092;2023-07-29T08:39:52;1.90;;;1.30;;
23302;SDS011;11820;48.738;9.092;2023-07-29T08:42:19;1.63;;;1.07;;
23302;SDS011;11820;48.738;9.092;2023-07-29T08:44:45;1.77;;;1.20;;
23302;SDS011;11820;48.738;9.092;2023-07-29T08:47:14;1.50;;;1.03;;
23302;SDS011;11820;48.738;9.092;2023-07-29T08:49:40;1.33;;;1.20;;
23302;SDS011;11820;48.738;9.092;2023-07-29T08:52:06;1.63;;;1.30;;
23302;SDS011;11820;48.738;9.092;2023-07-29T08:54:32;2.23;;;1.50;;
23302;SDS011;11820;48.738;9.092;2023-07-29T08:56:58;2.43;;;1.33;;
23302;SDS011;11820;48.738;9.092;2023-07-29T08:59:24;3.63;;;1.30;;
23302;SDS011;11820;48.738;9.092;2023-07-29T09:01:50;1.90;;;1.37;;
23302;SDS011;11820;48.738;9.092;2023-07-29T09:04:20;1.70;;;1.27;;
23302;SDS011;11820;48.738;9.092;2023-07-29T09:06:46;1.23;;;1.13;;
23302;SDS011;11820;48.738;9.092;2023-07-29T09:09:15;3.23;;;1.50;;
23302;SDS011;11820;48.738;9.092;2023-07-29T09:11:40;1.87;;;1.20;;
23302;SDS011;11820;48.738;9.092;2023-07-29T09:14:05;1.50;;;1.13;;
23302;SDS011;11820;48.738;9.092;2023-07-29T09:16:31;2.93;;;1.50;;
23302;SDS011;11820;48.738;9.092;2023-07-29T09:18:58;1.83;;;1.23;;
23302;SDS011;11820;48.738;9.092;2023-07-29T09:21:26;1.50;;;1.30;;
23302;SDS011;11820;48.738;9.092;2023-07-29T09:23:53;1.40;;;1.30;;
23302;SDS011;11820;48.738;9.092;2023-07-29T09:26:26;1.83;;;1.37;;
23302;SDS011;11820;48.738;9.092;2023-07-29T09:28:53;1.70;;;1.40;;
23302;SDS011;11820;48.738;9.092;2023-07-29T09:31:23;1.60;;;1.50;;
23302;SDS011;11820;48.738;9.092;2023-07-29T09:33:50;1.60;;;1.50;;
23302;SDS011;11820;48.738;9.092;2023-07-29T09:36:22;2.00;;;1.30;;
23302;SDS011;11820;48.738;9.092;2023-07-29T09:38:47;2.60;;;1.43;;
23302;SDS011;11820;48.738;9.092;2023-07-29T09:41:13;1.67;;;1.57;;
23302;SDS011;11820;48.738;9.092;2023-07-29T09:43:40;2.83;;;1.50;;
23302;SDS011;11820;48.738;9.092;2023-07-29T09:46:06;1.20;;;1.10;;
23302;SDS011;11820;48.738;9.092;2023-07-29T09:48:34;1.37;;;1.27;;
23302;SDS011;11820;48.738;9.092;2023-07-29T09:51:09;2.07;;;1.87;;
23302;SDS011;11820;48.738;9.092;2023-07-29T09:53:39;1.50;;;1.40;;
23302;SDS011;11820;48.738;9.092;2023-07-29T09:56:08;1.63;;;1.53;;
23302;SDS011;11820;48.738;9.092;2023-07-29T09:58:33;1.67;;;1.33;;
23302;SDS011;11820;48.738;9.092;2023-07-29T10:01:00;1.40;;;1.30;;
23302;SDS011;11820;48.738;9.092;2023-07-29T10:03:25;2.40;;;1.40;;
23302;SDS011;11820;48.738;9.092;2023-07-29T10:05:51;1.80;;;1.60;;
23302;SDS011;11820;48.738;9.092;2023-07-29T10:08:16;1.60;;;1.50;;
23302;SDS011;11820;48.738;9.092;2023-07-29T10:10:43;1.73;;;1.63;;
23302;SDS011;11820;48.738;9.092;2023-07-29T10:13:10;2.47;;;1.50;;
23302;SDS011;11820;48.738;9.092;2023-07-29T10:15:36;2.73;;;1.67;;
23302;SDS011;11820;48.738;9.092;2023-07-29T10:18:02;1.60;;;1.50;;
23302;SDS011;11820;48.738;9.092;2023-07-29T10:20:29;1.80;;;1.50;;
23302;SDS011;11820;48.738;9.092;2023-07-29T10:22:56;2.27;;;2.00;;
23302;SDS011;11820;48.738;9.092;2023-07-29T10:25:25;2.00;;;1.80;;
23302;SDS011;11820;48.738;9.092;2023-07-29T10:28:05;1.60;;;1.50;;
23302;SDS011;11820;48.738;9.092;2023-07-29T10:30:32;1.97;;;1.70;;
23302;SDS011;11820;48.738;9.092;2023-07-29T10:32:59;2.10;;;1.90;;
23302;SDS011;11820;48.738;9.092;2023-07-29T10:35:27;1.67;;;1.57;;
23302;SDS011;11820;48.738;9.092;2023-07-29T10:37:53;2.17;;;1.23;;
23302;SDS011;11820;48.738;9.092;2023-07-29T10:40:20;2.40;;;1.80;;
23302;SDS011;11820;48.738;9.092;2023-07-29T10:43:01;2.17;;;1.50;;
23302;SDS011;11820;48.738;9.092;2023-07-29T10:45:36;2.50;;;1.50;;
23302;SDS011;11820;48.738;9.092;2023-07-29T10:48:06;2.07;;;1.60;;
23302;SDS011;11820;48.738;9.092;2023-07-29T10:50:36;3.37;;;1.70;;
23302;SDS011;11820;48.738;9.092;2023-07-29T10:53:01;1.57;;;1.47;;
23302;SDS011;11820;48.738;9.092;2023-07-29T10:55:32;2.77;;;1.43;;
23302;SDS011;11820;48.738;9.092;2023-07-29T10:58:13;1.60;;;1.50;;
23302;SDS011;11820;48.738;9.092;2023-07-29T11:00:43;2.93;;;1.40;;
23302;SDS011;11820;48.738;9.092;2023-07-29T11:03:10;1.90;;;1.60;;
23302;SDS011;11820;48.738;9.092;2023-07-29T11:05:44;1.90;;;1.50;;
23302;SDS011;11820;48.738;9.092;2023-07-29T11:08:15;1.47;;;1.37;;
23302;SDS011;11820;48.738;9.092;2023-07-29T11:10:56;3.17;;;1.37;;
23302;SDS011;11820;48.738;9.092;2023-07-29T11:13:31;1.40;;;1.30;;
23302;SDS011;11820;48.738;9.092;2023-07-29T11:15:58;1.40;;;1.30;;
23302;SDS011;11820;48.738;9.092;2023-07-29T11:18:27;1.90;;;1.47;;
23302;SDS011;11820;48.738;9.092;2023-07-29T11:20:55;1.67;;;1.30;;
23302;SDS011;11820;48.738;9.092;2023-07-29T11:23:21;1.77;;;1.20;;
23302;SDS011;11820;48.738;9.092;2023-07-29T11:25:53;2.77;;;1.10;;
23302;SDS011;11820;48.738;9.092;2023-07-29T11:28:19;3.03;;;1.70;;
23302;SDS011;11820;48.738;9.092;2023-07-29T11:30:44;2.13;;;1.17;;
23302;SDS011;11820;48.738;9.092;2023-07-29T11:33:09;1.80;;;1.50;;
23302;SDS011;11820;48.738;9.092;2023-07-29T11:35:36;1.70;;;1.30;;
23302;SDS011;11820;48.738;9.092;2023-07-29T11:38:01;1.87;;;1.40;;
23302;SDS011;11820;48.738;9.092;2023-07-29T11:40:27;2.00;;;1.40;;
23302;SDS011;11820;48.738;9.092;2023-07-29T11:42:52;1.50;;;1.40;;
23302;SDS011;11820;48.738;9.092;2023-07-29T11:45:18;2.00;;;1.40;;
23302;SDS011;11820;48.738;9.092;2023-07-29T11:47:45;1.77;;;1.47;;
23302;SDS011;11820;48.738;9.092;2023-07-29T11:50:11;1.80;;;1.70;;
23302;SDS011;11820;48.738;9.092;2023-07-29T11:52:42;1.70;;;1.50;;
23302;SDS011;11820;48.738;9.092;2023-07-29T11:55:09;1.90;;;1.80;;
23302;SDS011;11820;48.738;9.092;2023-07-29T11:57:38;2.80;;;1.50;;
23302;SDS011;11820;48.738;9.092;2023-07-29T12:00:05;1.70;;;1.60;;
23302;SDS011;11820;48.738;9.092;2023-07-29T12:02:32;1.60;;;1.50;;
23302;SDS011;11820;48.738;9.092;2023-07-29T12:05:00;2.40;;;1.40;;
23302;SDS011;11820;48.738;9.092;2023-07-29T12:07:27;1.63;;;1.53;;
23302;SDS011;11820;48.738;9.092;2023-07-29T12:09:52;1.77;;;1.53;;
23302;SDS011;11820;48.738;9.092;2023-07-29T12:12:18;3.40;;;1.70;;
23302;SDS011;11820;48.738;9.092;2023-07-29T12:14:44;2.67;;;1.50;;
23302;SDS011;11820;48.738;9.092;2023-07-29T12:17:11;1.63;;;1.53;;
23302;SDS011;11820;48.738;9.092;2023-07-29T12:19:37;2.17;;;1.80;;
23302;SDS011;11820;48.738;9.092;2023-07-29T12:22:04;3.67;;;1.40;;
23302;SDS011;11820;48.738;9.092;2023-07-29T12:24:31;1.60;;;1.50;;
23302;SDS011;11820;48.738;9.092;2023-07-29T12:26:58;1.50;;;1.40;;
23302;SDS011;11820;48.738;9.092;2023-07-29T12:29:25;2.70;;;2.50;;
23302;SDS011;11820;48.738;9.092;2023-07-29T12:31:58;3.87;;;3.27;;
23302;SDS011;11820;48.738;9.092;2023-07-29T12:34:25;1.80;;;1.70;;
23302;SDS011;11820;48.738;9.092;2023-07-29T12:36:52;1.50;;;1.40;;
23302;SDS011;11820;48.738;9.092;2023-07-29T12:39:23;2.50;;;1.60;;
23302;SDS011;11820;48.738;9.092;2023-07-29T12:41:49;1.80;;;1.70;;
23302;SDS011;11820;48.738;9.092;2023-07-29T12:44:16;2.03;;;1.70;;
23302;SDS011;11820;48.738;9.092;2023-07-29T12:46:42;1.33;;;1.23;;
23302;SDS011;11820;48.738;9.092;2023-07-29T12:49:08;2.07;;;1.70;;
23302;SDS011;11820;48.738;9.092;2023-07-29T12:51:33;1.70;;;1.60;;
23302;SDS011;11820;48.738;9.092;2023-07-29T12:53:59;1.83;;;1.70;;
23302;SDS011;11820;48.738;9.092;2023-07-29T12:56:25;2.17;;;1.57;;
23302;SDS011;11820;48.738;9.092;2023-07-29T12:58:51;2.10;;;1.90;;
23302;SDS011;11820;48.738;9.092;2023-07-29T13:01:16;1.90;;;1.80;;
23302;SDS011;11820;48.738;9.092;2023-07-29T13:03:47;1.37;;;1.27;;
23302;SDS011;11820;48.738;9.092;2023-07-29T13:06:13;2.33;;;1.60;;
23302;SDS011;11820;48.738;9.092;2023-07-29T13:08:38;1.63;;;1.40;;
23302;SDS011;11820;48.738;9.092;2023-07-29T13:15:54;2.08;;;1.40;;
23302;SDS011;11820;48.738;9.092;2023-07-29T13:18:20;2.55;;;1.50;;
23302;SDS011;11820;48.738;9.092;2023-07-29T13:20:46;1.42;;;1.33;;
23302;SDS011;11820;48.738;9.092;2023-07-29T13:23:12;1.83;;;1.73;;
23302;SDS011;11820;48.738;9.092;2023-07-29T13:25:37;2.00;;;1.40;;
23302;SDS011;11820;48.738;9.092;2023-07-29T13:28:02;1.73;;;1.63;;
23302;SDS011;11820;48.738;9.092;2023-07-29T13:30:28;1.60;;;1.40;;
23302;SDS011;11820;48.738;9.092;2023-07-29T13:32:54;1.90;;;1.33;;
23302;SDS011;11820;48.738;9.092;2023-07-29T13:35:19;1.63;;;1.47;;
23302;SDS011;11820;48.738;9.092;2023-07-29T13:37:44;1.70;;;1.60;;
23302;SDS011;11820;48.738;9.092;2023-07-29T13:40:10;1.50;;;1.40;;
23302;SDS011;11820;48.738;9.092;2023-07-29T13:42:35;1.70;;;1.60;;
23302;SDS011;11820;48.738;9.092;2023-07-29T13:45:01;3.83;;;1.70;;
23302;SDS011;11820;48.738;9.092;2023-07-29T13:47:27;1.50;;;1.40;;
23302;SDS011;11820;48.738;9.092;2023-07-29T13:49:53;1.70;;;1.53;;
23302;SDS011;11820;48.738;9.092;2023-07-29T13:52:18;1.80;;;1.63;;
23302;SDS011;11820;48.738;9.092;2023-07-29T13:54:43;2.10;;;1.90;;
23302;SDS011;11820;48.738;9.092;2023-07-29T13:57:09;1.33;;;1.23;;
23302;SDS011;11820;48.738;9.092;2023-07-29T13:59:35;1.77;;;1.40;;
23302;SDS011;11820;48.738;9.092;2023-07-29T14:02:03;2.70;;;1.40;;
23302;SDS011;11820;48.738;9.092;2023-07-29T14:04:34;1.60;;;1.50;;
23302;SDS011;11820;48.738;9.092;2023-07-29T14:07:00;1.70;;;1.60;;
23302;SDS011;11820;48.738;9.092;2023-07-29T14:09:26;1.80;;;1.57;;
23302;SDS011;11820;48.738;9.092;2023-07-29T14:11:52;1.67;;;1.57;;
23302;SDS011;11820;48.738;9.092;2023-07-29T14:14:17;2.40;;;1.63;;
23302;SDS011;11820;48.738;9.092;2023-07-29T14:16:42;2.20;;;1.80;;
23302;SDS011;11820;48.738;9.092;2023-07-29T14:19:08;2.03;;;1.60;;
23302;SDS011;11820;48.738;9.092;2023-07-29T14:21:33;2.07;;;1.87;;
23302;SDS011;11820;48.738;9.092;2023-07-29T14:23:59;1.60;;;1.50;;
23302;SDS011;11820;48.738;9.092;2023-07-29T14:26:25;2.40;;;1.90;;
23302;SDS011;11820;48.738;9.092;2023-07-29T14:28:50;2.27;;;2.07;;
23302;SDS011;11820;48.738;9.092;2023-07-29T14:31:16;1.57;;;1.40;;
23302;SDS011;11820;48.738;9.092;2023-07-29T14:33:42;2.93;;;2.10;;
23302;SDS011;11820;48.738;9.092;2023-07-29T14:36:08;2.70;;;1.50;;
23302;SDS011;11820;48.738;9.092;2023-07-29T14:38:34;2.30;;;1.70;;
23302;SDS011;11820;48.738;9.092;2023-07-29T14:41:00;2.17;;;1.97;;
23302;SDS011;11820;48.738;9.092;2023-07-29T14:43:25;1.60;;;1.50;;
23302;SDS011;11820;48.738;9.092;2023-07-29T14:45:50;2.10;;;1.90;;
23302;SDS011;11820;48.738;9.092;2023-07-29T14:48:16;1.80;;;1.70;;
23302;SDS011;11820;48.738;9.092;2023-07-29T14:50:41;2.20;;;1.97;;
23302;SDS011;11820;48.738;9.092;2023-07-29T14:53:08;2.20;;;1.90;;
23302;SDS011;11820;48.738;9.092;2023-07-29T14:55:34;4.73;;;2.20;;
23302;SDS011;11820;48.738;9.092;2023-07-29T14:57:59;2.47;;;1.83;;
23302;SDS011;11820;48.738;9.092;2023-07-29T15:00:24;3.13;;;1.80;;